createdAt,value
2023-03-26T00:02:14.578Z,19.31
2023-03-26T00:06:14.511Z,19.38
2023-03-26T00:10:14.485Z,19.35
2023-03-26T00:14:14.429Z,19.38
2023-03-26T00:18:14.413Z,19.36
2023-03-26T00:22:14.390Z,19.44
2023-03-26T00:26:14.366Z,19.45
2023-03-26T00:30:14.305Z,19.51
2023-03-26T00:34:14.284Z,19.45
2023-03-26T00:38:14.268Z,19.51
2023-03-26T00:42:14.308Z,19.48
2023-03-26T00:46:14.399Z,19.54
2023-03-26T00:50:14.404Z,19.53
2023-03-26T00:54:14.369Z,19.56
2023-03-26T00:58:14.355Z,19.62
2023-03-26T01:02:14.312Z,19.56
2023-03-26T01:06:14.274Z,19.59
2023-03-26T01:10:14.213Z,19.62
2023-03-26T01:14:14.185Z,19.65
2023-03-26T01:18:14.166Z,19.61
2023-03-26T01:22:14.114Z,19.59
2023-03-26T01:26:14.057Z,19.59
2023-03-26T01:30:14.011Z,19.64
2023-03-26T01:34:14.008Z,19.67
2023-03-26T01:38:13.960Z,19.61
2023-03-26T01:42:13.919Z,19.73
2023-03-26T01:46:13.926Z,19.73
2023-03-26T01:50:13.829Z,19.75
2023-03-26T01:54:13.779Z,19.75
2023-03-26T01:58:13.736Z,19.77
2023-03-26T02:02:13.800Z,19.73
2023-03-26T02:06:13.836Z,19.74
2023-03-26T02:10:13.870Z,19.76
2023-03-26T02:14:13.933Z,19.77
2023-03-26T02:18:13.893Z,19.77
2023-03-26T02:22:13.869Z,19.76
2023-03-26T02:26:13.811Z,19.79
2023-03-26T02:30:13.761Z,19.75
2023-03-26T02:34:13.757Z,19.71
2023-03-26T02:38:13.688Z,19.73
2023-03-26T02:42:13.649Z,19.69
2023-03-26T02:46:13.694Z,19.72
2023-03-26T02:50:13.578Z,19.69
2023-03-26T02:54:13.543Z,19.67
2023-03-26T02:58:13.501Z,19.69
2023-03-26T03:02:13.538Z,19.67
2023-03-26T03:06:13.447Z,19.68
2023-03-26T03:10:13.370Z,19.66
2023-03-26T03:14:13.349Z,19.65
2023-03-26T03:18:13.318Z,19.68
2023-03-26T03:22:13.273Z,19.67
2023-03-26T03:26:13.232Z,19.66
2023-03-26T03:30:13.250Z,19.65
2023-03-26T03:34:13.266Z,19.65
2023-03-26T03:38:13.317Z,19.66
2023-03-26T03:42:13.269Z,19.65
2023-03-26T03:46:13.281Z,19.66
2023-03-26T03:50:13.227Z,19.65
2023-03-26T03:54:13.181Z,19.62
2023-03-26T03:58:13.119Z,19.72
2023-03-26T04:02:13.108Z,19.65
2023-03-26T04:06:13.059Z,19.71
2023-03-26T04:10:13.018Z,19.69
2023-03-26T04:14:12.990Z,19.71
2023-03-26T04:18:12.921Z,19.66
2023-03-26T04:22:12.888Z,19.77
2023-03-26T04:26:12.870Z,19.69
2023-03-26T04:30:12.826Z,19.69
2023-03-26T04:34:12.791Z,19.74
2023-03-26T04:38:12.810Z,19.69
2023-03-26T04:42:12.814Z,19.72
2023-03-26T04:46:12.872Z,19.80
2023-03-26T04:50:12.917Z,19.71
2023-03-26T04:54:13.008Z,19.71
2023-03-26T04:58:12.953Z,19.71
2023-03-26T05:02:13.057Z,19.63
2023-03-26T05:06:13.063Z,19.63
2023-03-26T05:10:13.125Z,19.63
2023-03-26T05:14:13.147Z,19.64
2023-03-26T05:18:13.181Z,19.67
2023-03-26T05:22:13.241Z,19.66
2023-03-26T05:26:13.335Z,19.63
2023-03-26T05:30:13.389Z,19.56
2023-03-26T05:34:13.445Z,19.57
2023-03-26T05:38:13.479Z,19.54
2023-03-26T05:42:13.484Z,19.60
2023-03-26T05:46:13.545Z,19.51
2023-03-26T05:50:13.685Z,19.42
2023-03-26T05:54:13.685Z,19.43
2023-03-26T05:58:13.686Z,19.46
2023-03-26T06:02:13.741Z,19.43
2023-03-26T06:06:13.709Z,19.42
2023-03-26T06:10:18.140Z,19.36
2023-03-26T06:14:14.616Z,19.33
2023-03-26T06:18:13.706Z,19.31
2023-03-26T06:22:13.599Z,19.24
2023-03-26T06:26:13.660Z,19.24
2023-03-26T06:30:13.661Z,19.20
2023-03-26T06:34:13.721Z,19.20
2023-03-26T06:38:13.681Z,19.17
2023-03-26T06:42:13.709Z,19.23
2023-03-26T06:46:13.757Z,19.17
2023-03-26T06:50:13.737Z,19.13
2023-03-26T06:54:13.683Z,19.09
2023-03-26T06:58:13.654Z,19.16
2023-03-26T07:02:13.617Z,19.14
2023-03-26T07:06:13.589Z,19.13
2023-03-26T07:10:13.578Z,19.14
2023-03-26T07:14:13.499Z,18.87
2023-03-26T07:18:13.464Z,18.73
2023-03-26T07:22:13.423Z,18.77
2023-03-26T07:26:13.394Z,18.77
2023-03-26T07:30:13.357Z,18.80
2023-03-26T07:34:13.314Z,18.78
2023-03-26T07:38:13.274Z,18.88
2023-03-26T07:42:13.455Z,18.92
2023-03-26T07:46:13.627Z,18.91
2023-03-26T07:50:13.757Z,18.83
2023-03-26T07:54:13.916Z,18.83
2023-03-26T07:58:14.018Z,18.79
2023-03-26T08:02:14.144Z,18.76
2023-03-26T08:06:14.293Z,18.73
2023-03-26T08:10:14.397Z,18.79
2023-03-26T08:14:14.510Z,18.78
2023-03-26T08:18:14.616Z,18.79
2023-03-26T08:22:14.708Z,18.68
2023-03-26T08:26:14.800Z,18.69
2023-03-26T08:30:14.882Z,18.56
2023-03-26T08:34:14.883Z,18.50
2023-03-26T08:38:14.891Z,18.46
2023-03-26T08:42:14.884Z,18.36
2023-03-26T08:46:14.961Z,18.40
2023-03-26T08:50:14.937Z,18.34
2023-03-26T08:54:14.922Z,18.33
2023-03-26T08:58:14.895Z,18.37
2023-03-26T09:02:14.923Z,18.44
2023-03-26T09:06:14.949Z,18.50
2023-03-26T09:10:15.062Z,18.56
2023-03-26T09:14:15.053Z,18.62
2023-03-26T09:18:15.090Z,18.68
2023-03-26T09:22:15.165Z,18.68
2023-03-26T09:26:15.218Z,18.69
2023-03-26T09:30:15.298Z,18.72
2023-03-26T09:34:15.372Z,18.74
2023-03-26T09:38:15.448Z,18.74
2023-03-26T09:42:15.523Z,18.71
2023-03-26T09:46:15.605Z,18.67
2023-03-26T09:50:15.647Z,18.62
2023-03-26T09:54:15.644Z,18.59
2023-03-26T09:58:15.661Z,18.62
2023-03-26T10:02:15.698Z,18.66
2023-03-26T10:06:15.737Z,18.62
2023-03-26T10:10:15.777Z,18.64
2023-03-26T10:14:15.867Z,18.70
2023-03-26T10:18:27.090Z,18.66
2023-03-26T10:22:16.826Z,18.66
2023-03-26T10:26:15.816Z,18.71
2023-03-26T10:30:15.808Z,18.66
2023-03-26T10:34:19.408Z,18.75
2023-03-26T10:38:16.679Z,18.75
2023-03-26T10:42:15.674Z,18.78
2023-03-26T10:46:15.674Z,18.79
2023-03-26T10:50:22.671Z,18.85
2023-03-26T10:54:16.533Z,18.88
2023-03-26T10:58:15.477Z,18.88
2023-03-26T11:02:15.442Z,18.90
2023-03-26T11:06:15.402Z,18.86
2023-03-26T11:10:15.455Z,18.84
2023-03-26T11:14:24.433Z,18.83
2023-03-26T11:18:16.535Z,18.86
2023-03-26T11:22:15.443Z,18.83
2023-03-26T11:26:15.419Z,18.83
2023-03-26T11:30:15.360Z,18.84
2023-03-26T11:34:15.339Z,18.81
2023-03-26T11:38:15.406Z,18.87
2023-03-26T11:42:15.460Z,18.89
2023-03-26T11:46:15.534Z,18.89
2023-03-26T11:50:15.562Z,18.87
2023-03-26T11:54:15.633Z,18.95
2023-03-26T11:58:15.680Z,18.91
2023-03-26T12:02:15.795Z,19.02
2023-03-26T12:06:15.825Z,19.05
2023-03-26T12:10:18.447Z,19.12
2023-03-26T12:14:15.892Z,19.12
2023-03-26T12:18:15.932Z,19.12
2023-03-26T12:22:15.792Z,19.18
2023-03-26T12:26:15.750Z,19.18
2023-03-26T12:30:15.709Z,19.15
2023-03-26T12:34:15.675Z,19.27
2023-03-26T12:38:15.664Z,19.24
2023-03-26T12:43:40.420Z,19.26
2023-03-26T12:47:55.116Z,19.34
2023-03-26T12:50:16.518Z,19.42
2023-03-26T12:54:15.456Z,19.54
2023-03-26T12:58:15.480Z,19.51
2023-03-26T13:02:15.411Z,19.63
2023-03-26T13:06:15.359Z,19.69
2023-03-26T13:10:15.329Z,19.78
2023-03-26T13:14:15.301Z,19.80
2023-03-26T13:18:15.414Z,19.94
2023-03-26T13:22:15.592Z,19.95
2023-03-26T13:26:15.780Z,20.07
2023-03-26T13:30:15.992Z,20.09
2023-03-26T13:34:16.209Z,20.12
2023-03-26T13:38:16.408Z,20.23
2023-03-26T13:42:16.596Z,20.21
2023-03-26T13:46:16.842Z,20.21
2023-03-26T13:50:17.039Z,20.26
2023-03-26T13:54:17.241Z,20.26
2023-03-26T13:58:17.442Z,20.33
2023-03-26T14:02:17.642Z,20.33
2023-03-26T14:06:17.852Z,20.39
2023-03-26T14:10:18.072Z,20.39
2023-03-26T14:14:18.280Z,20.45
2023-03-26T14:18:18.572Z,20.42
2023-03-26T14:22:18.736Z,20.48
2023-03-26T14:26:18.948Z,20.54
2023-03-26T14:30:18.922Z,20.49
2023-03-26T14:34:18.875Z,20.57
2023-03-26T14:38:18.839Z,20.71
2023-03-26T14:42:18.786Z,20.72
2023-03-26T14:46:18.822Z,20.77
2023-03-26T14:50:18.717Z,20.77
2023-03-26T14:54:18.673Z,20.90
2023-03-26T14:58:18.652Z,20.92
2023-03-26T15:02:18.709Z,20.90
2023-03-26T15:06:18.681Z,21.03
2023-03-26T15:10:18.659Z,21.04
2023-03-26T15:14:18.614Z,21.15
2023-03-26T15:18:18.575Z,21.22
2023-03-26T15:22:18.520Z,21.27
2023-03-26T15:26:18.504Z,21.30
2023-03-26T15:30:18.441Z,21.36
2023-03-26T15:34:18.440Z,21.39
2023-03-26T15:38:18.381Z,21.37
2023-03-26T15:42:18.345Z,21.37
2023-03-26T15:46:18.410Z,21.43
2023-03-26T15:50:18.567Z,21.46
2023-03-26T15:54:18.514Z,21.54
2023-03-26T15:58:18.490Z,21.49
2023-03-26T16:02:18.460Z,21.59
2023-03-26T16:06:18.420Z,21.64
2023-03-26T16:10:18.368Z,21.69
2023-03-26T16:14:18.360Z,21.74
2023-03-26T16:18:18.310Z,21.72
2023-03-26T16:22:18.259Z,21.77
2023-03-26T16:26:18.214Z,21.81
2023-03-26T16:30:20.653Z,21.92
2023-03-26T16:34:18.146Z,21.92
2023-03-26T16:38:18.109Z,21.96
2023-03-26T16:42:18.218Z,22.02
2023-03-26T16:46:18.115Z,22.06
2023-03-26T16:50:18.017Z,22.13
2023-03-26T16:54:17.979Z,22.21
2023-03-26T16:58:17.955Z,22.13
2023-03-26T17:02:17.893Z,22.18
2023-03-26T17:06:17.856Z,22.19
2023-03-26T17:10:17.827Z,22.25
2023-03-26T17:14:17.773Z,22.25
2023-03-26T17:18:17.849Z,22.27
2023-03-26T17:22:17.716Z,22.33
2023-03-26T17:26:17.707Z,22.33
2023-03-26T17:30:17.642Z,22.29
2023-03-26T17:34:17.630Z,22.33
2023-03-26T17:38:17.612Z,22.31
2023-03-26T17:42:17.547Z,22.35
2023-03-26T17:46:17.589Z,22.43
2023-03-26T17:50:17.471Z,22.41
2023-03-26T17:54:17.429Z,22.40
2023-03-26T17:58:17.415Z,22.51
2023-03-26T18:02:17.390Z,22.52
2023-03-26T18:06:17.348Z,22.58
2023-03-26T18:10:17.289Z,22.58
2023-03-26T18:14:17.244Z,22.55
2023-03-26T18:18:17.193Z,22.56
2023-03-26T18:22:17.185Z,22.61
2023-03-26T18:26:17.125Z,22.61
2023-03-26T18:30:17.097Z,22.61
2023-03-26T18:34:17.035Z,22.64
2023-03-26T18:38:17.060Z,22.62
2023-03-26T18:42:22.388Z,22.59
2023-03-26T18:46:18.010Z,22.61
2023-03-26T18:50:16.965Z,22.59
2023-03-26T18:54:16.961Z,22.65
2023-03-26T18:58:16.986Z,22.62
2023-03-26T19:02:17.026Z,22.64
2023-03-26T19:06:16.919Z,22.65
2023-03-26T19:10:16.881Z,22.67
2023-03-26T19:14:17.163Z,22.64
2023-03-26T19:18:16.799Z,22.62
2023-03-26T19:22:16.753Z,22.59
2023-03-26T19:26:16.730Z,22.58
2023-03-26T19:30:16.660Z,22.58
2023-03-26T19:34:16.676Z,22.59
2023-03-26T19:38:16.587Z,22.61
2023-03-26T19:42:16.542Z,22.54
2023-03-26T19:46:16.524Z,22.59
2023-03-26T19:50:16.500Z,22.53
2023-03-26T19:54:16.467Z,22.56
2023-03-26T19:58:16.420Z,22.50
2023-03-26T20:02:16.428Z,22.51
2023-03-26T20:06:16.354Z,22.51
2023-03-26T20:10:16.324Z,22.51
2023-03-26T20:14:16.354Z,22.45
2023-03-26T20:18:16.307Z,22.39
2023-03-26T20:22:16.321Z,22.38
2023-03-26T20:26:16.336Z,22.30
2023-03-26T20:30:19.218Z,22.27
2023-03-26T20:34:17.369Z,22.19
2023-03-26T20:38:17.072Z,22.21
2023-03-26T20:42:16.270Z,22.16
2023-03-26T20:46:16.245Z,22.10
2023-03-26T20:50:16.135Z,22.10
2023-03-26T20:54:16.110Z,22.09
2023-03-26T20:58:16.072Z,21.98
2023-03-26T21:02:16.058Z,21.96
2023-03-26T21:06:16.000Z,21.87
2023-03-26T21:10:15.965Z,21.86
2023-03-26T21:14:15.905Z,21.83
2023-03-26T21:18:15.884Z,21.81
2023-03-26T21:22:15.842Z,21.76
2023-03-26T21:26:15.797Z,21.75
2023-03-26T21:30:15.781Z,21.66
2023-03-26T21:34:15.726Z,21.60
2023-03-26T21:38:15.682Z,21.58
2023-03-26T21:42:15.640Z,21.53
2023-03-26T21:46:15.682Z,21.46
2023-03-26T21:50:15.592Z,21.53
2023-03-26T21:54:15.537Z,21.49
2023-03-26T21:58:15.491Z,21.38
2023-03-26T22:02:15.441Z,21.35
2023-03-26T22:06:15.414Z,21.31
2023-03-26T22:10:15.468Z,21.34
2023-03-26T22:14:15.482Z,21.27
2023-03-26T22:18:15.553Z,21.29
2023-03-26T22:22:15.635Z,21.19
2023-03-26T22:26:15.693Z,21.15
2023-03-26T22:30:15.740Z,21.12
2023-03-26T22:34:15.808Z,21.09
2023-03-26T22:38:15.838Z,21.11
2023-03-26T22:42:15.945Z,21.05
2023-03-26T22:46:16.174Z,21.01
2023-03-26T22:50:16.156Z,20.94
2023-03-26T22:54:16.166Z,20.95
2023-03-26T22:58:16.180Z,20.91
2023-03-26T23:02:16.152Z,20.92
2023-03-26T23:06:16.136Z,20.85
2023-03-26T23:10:16.083Z,20.83
2023-03-26T23:14:16.077Z,20.82
2023-03-26T23:18:16.008Z,20.82
2023-03-26T23:22:15.952Z,20.79
2023-03-26T23:26:15.928Z,20.80
2023-03-26T23:30:15.894Z,20.71
2023-03-26T23:34:15.890Z,20.72
2023-03-26T23:38:15.827Z,20.70
2023-03-26T23:42:15.776Z,20.72
2023-03-26T23:46:16.781Z,20.64
2023-03-26T23:50:15.713Z,20.65
2023-03-26T23:54:15.721Z,20.62
2023-03-26T23:58:15.688Z,20.56
